Time;durP1;ratioP1;P1;durP2;ratioP2;P2;SDS_P1;SDS_P2;PMS_P1;PMS_P2;Temp;Humidity;BMP_temperature;BMP_pressure;BME280_temperature;BME280_humidity;BME280_pressure;Samples;Min_cycle;Max_cycle;Signal;HPM_P1;HPM_P2
2021/12/19 00:04:26;;;;;;;121.83;19.73;;;;;;;-145.18;100.00;47553.16;5046621;28;20384;-74
2021/12/19 00:09:35;;;;;;;62.77;13.57;;;;;;;-145.18;100.00;47555.13;5050593;28;20273;-74
2021/12/19 00:12:02;;;;;;;64.00;14.57;;;;;;;-145.18;100.00;47553.16;5049100;28;20282;-73
2021/12/19 00:14:28;;;;;;;69.00;15.53;;;;;;;-145.18;100.00;47543.41;5050430;28;20048;-74
2021/12/19 00:16:54;;;;;;;78.67;16.10;;;;;;;-145.18;100.00;47533.63;5050289;28;20274;-74
2021/12/19 00:19:20;;;;;;;86.50;17.33;;;;;;;-145.18;100.00;47559.03;5050168;28;20519;-74
2021/12/19 00:21:46;;;;;;;72.33;16.60;;;;;;;-145.18;100.00;47564.91;5050273;28;20388;-74
2021/12/19 00:24:12;;;;;;;115.70;21.83;;;;;;;-145.18;100.00;47557.06;5051175;28;20289;-73
2021/12/19 00:26:38;;;;;;;103.17;22.70;;;;;;;-145.18;100.00;47561.00;5049927;28;20413;-74
2021/12/19 00:29:04;;;;;;;77.03;17.57;;;;;;;-145.18;100.00;47551.22;5048813;28;20297;-74
2021/12/19 00:31:31;;;;;;;67.60;19.97;;;;;;;-145.18;100.00;47543.41;5049970;28;20040;-74
2021/12/19 00:33:57;;;;;;;60.30;18.07;;;;;;;-145.18;100.00;47545.34;5050080;28;20274;-74
2021/12/19 00:36:22;;;;;;;63.43;17.27;;;;;;;-145.18;100.00;47543.41;5049890;28;20375;-74
2021/12/19 00:38:48;;;;;;;55.17;17.97;;;;;;;-145.18;100.00;47568.81;5051016;28;20325;-74
2021/12/19 00:41:14;;;;;;;60.70;21.43;;;;;;;-145.18;100.00;47564.91;5050161;28;20036;-74
2021/12/19 00:46:08;;;;;;;55.30;19.53;;;;;;;-145.18;100.00;47564.91;5049703;28;20059;-74
2021/12/19 00:48:36;;;;;;;44.00;14.50;;;;;;;-145.18;100.00;47564.91;5050121;28;20289;-73
2021/12/19 00:51:02;;;;;;;74.77;17.70;;;;;;;-145.18;100.00;47549.25;5050069;28;20033;-73
2021/12/19 00:53:28;;;;;;;62.17;13.43;;;;;;;-145.18;100.00;47559.03;5049360;28;20800;-73
2021/12/19 00:55:53;;;;;;;62.93;14.37;;;;;;;-145.18;100.00;47564.91;5050085;28;20359;-73
2021/12/19 00:58:19;;;;;;;85.57;17.40;;;;;;;-145.18;100.00;47561.00;5050024;28;20045;-73
2021/12/19 01:00:45;;;;;;;80.63;16.47;;;;;;;-145.18;100.00;47561.00;5048553;28;20405;-73
2021/12/19 01:03:10;;;;;;;86.50;15.53;;;;;;;-145.18;100.00;47568.81;5049934;28;20506;-73
2021/12/19 01:05:38;;;;;;;130.43;21.07;;;;;;;-145.18;100.00;47578.56;5049922;28;20034;-73
2021/12/19 01:08:05;;;;;;;128.47;19.53;;;;;;;-145.18;100.00;47566.84;5049995;28;20580;-73
2021/12/19 01:10:31;;;;;;;119.87;20.73;;;;;;;-145.18;100.00;47564.91;5049584;28;20435;-73
2021/12/19 01:12:57;;;;;;;56.33;14.37;;;;;;;-145.18;100.00;47559.03;5049788;28;20643;-73
2021/12/19 01:15:23;;;;;;;58.70;12.77;;;;;;;-145.18;100.00;47586.38;5050003;28;20270;-73
2021/12/19 01:17:48;;;;;;;92.13;16.90;;;;;;;-145.18;100.00;47590.28;5048739;28;20037;-73
2021/12/19 01:20:18;;;;;;;76.97;14.87;;;;;;;-145.18;100.00;47568.81;5049615;28;20120;-73
2021/12/19 01:22:44;;;;;;;44.87;11.73;;;;;;;-145.18;100.00;47555.13;5049549;28;20112;-73
2021/12/19 01:25:11;;;;;;;57.83;12.73;;;;;;;-145.18;100.00;47547.31;5049108;28;20293;-73
2021/12/19 01:27:36;;;;;;;47.50;11.57;;;;;;;-145.18;100.00;47574.66;5047716;28;20631;-73
2021/12/19 01:30:05;;;;;;;64.50;12.63;;;;;;;-145.18;100.00;47543.41;5048961;28;20254;-73
2021/12/19 01:32:31;;;;;;;80.63;12.47;;;;;;;-145.18;100.00;47566.84;5048906;28;20155;-73
2021/12/19 01:34:57;;;;;;;74.67;15.33;;;;;;;-145.18;100.00;47590.28;5049936;28;20324;-73
2021/12/19 01:37:22;;;;;;;65.93;11.60;;;;;;;-145.18;100.00;47557.06;5048711;28;20389;-74
2021/12/19 01:39:48;;;;;;;58.93;11.73;;;;;;;-145.18;100.00;47564.91;5049347;28;20033;-73
2021/12/19 01:42:14;;;;;;;75.27;13.00;;;;;;;-145.18;100.00;47594.19;5049456;28;20053;-74
2021/12/19 01:44:40;;;;;;;51.27;13.83;;;;;;;-145.18;100.00;47582.47;5047815;28;20049;-73
2021/12/19 01:47:05;;;;;;;29.43;7.83;;;;;;;-145.18;100.00;47580.53;5048757;28;20305;-73
2021/12/19 01:49:31;;;;;;;39.23;8.63;;;;;;;-145.18;100.00;47564.91;5049422;28;20634;-74
2021/12/19 01:51:57;;;;;;;20.47;6.90;;;;;;;-145.18;100.00;47566.84;5048944;28;20048;-73
2021/12/19 01:54:23;;;;;;;17.53;5.50;;;;;;;-145.18;100.00;47574.66;5048531;28;20126;-73
2021/12/19 01:56:48;;;;;;;14.03;4.67;;;;;;;-145.18;100.00;47598.09;5048686;28;20775;-73
2021/12/19 01:59:14;;;;;;;16.03;4.23;;;;;;;-145.18;100.00;47584.44;5048911;28;20135;-73
2021/12/19 02:01:45;;;;;;;11.17;3.43;;;;;;;-145.18;100.00;47572.72;5046791;28;20502;-73
2021/12/19 02:04:12;;;;;;;16.40;4.67;;;;;;;-145.18;100.00;47594.19;5048946;28;20091;-73
2021/12/19 02:06:37;;;;;;;20.97;5.67;;;;;;;-145.18;100.00;47574.66;5048958;28;20274;-73
2021/12/19 02:09:06;;;;;;;25.13;7.03;;;;;;;-145.18;100.00;47574.66;5048542;28;20324;-73
2021/12/19 02:11:36;;;;;;;23.63;8.07;;;;;;;-145.18;100.00;47562.94;5048224;28;20048;-73
2021/12/19 02:14:03;;;;;;;21.70;7.57;;;;;;;-145.18;100.00;47578.56;5048671;28;20273;-73
2021/12/19 02:16:28;;;;;;;23.50;7.23;;;;;;;-145.18;100.00;47564.91;5047933;28;20278;-73
2021/12/19 02:18:54;;;;;;;21.50;5.67;;;;;;;-145.18;100.00;47551.22;5048541;28;20817;-73
2021/12/19 02:21:19;;;;;;;22.13;6.87;;;;;;;-145.18;100.00;47555.13;5048064;28;20068;-73
2021/12/19 02:23:45;;;;;;;21.20;5.77;;;;;;;-145.18;100.00;47584.44;5048168;28;20068;-73
2021/12/19 02:26:13;;;;;;;18.50;4.97;;;;;;;-145.18;100.00;47578.56;5049012;28;20068;-73
2021/12/19 02:28:38;;;;;;;14.67;4.40;;;;;;;-145.18;100.00;47572.72;5047037;28;20132;-73
2021/12/19 02:31:04;;;;;;;15.37;3.90;;;;;;;-145.18;100.00;47586.38;5048045;28;20274;-73
2021/12/19 02:33:32;;;;;;;17.10;5.10;;;;;;;-145.18;100.00;47584.44;5048010;28;20045;-73
2021/12/19 02:36:06;;;;;;;11.00;3.83;;;;;;;-145.18;100.00;47564.91;5048259;28;20082;-73
2021/12/19 02:49:04;;;;;;;23.13;7.50;;;;;;;-145.18;100.00;47586.38;5048077;28;20289;-73
2021/12/19 02:51:33;;;;;;;28.77;7.47;;;;;;;-145.18;100.00;47598.09;5047091;28;20638;-74
2021/12/19 02:54:00;;;;;;;30.67;7.53;;;;;;;-145.18;100.00;47584.44;5047693;28;20273;-73
2021/12/19 02:56:27;;;;;;;25.53;7.17;;;;;;;-145.18;100.00;47578.56;5029788;28;20354;-74
2021/12/19 02:58:53;;;;;;;27.27;6.17;;;;;;;-145.18;100.00;47566.84;5047448;28;20269;-73
2021/12/19 03:01:20;;;;;;;24.13;6.47;;;;;;;-145.18;100.00;47578.56;5046910;28;20269;-73
2021/12/19 03:03:46;;;;;;;27.97;7.47;;;;;;;-145.18;100.00;47576.63;5047256;28;20062;-73
2021/12/19 03:06:11;;;;;;;27.53;6.63;;;;;;;-145.18;100.00;47568.81;5047740;28;20274;-73
2021/12/19 03:08:42;;;;;;;25.53;5.97;;;;;;;-145.18;100.00;47580.53;5046600;28;20417;-73
2021/12/19 03:19:20;;;;;;;33.47;7.37;;;;;;;-145.18;100.00;47582.47;5046881;28;20362;-73
2021/12/19 03:21:45;;;;;;;33.70;7.37;;;;;;;-145.18;100.00;47584.44;5046794;28;20274;-73
2021/12/19 03:24:11;;;;;;;25.93;6.73;;;;;;;-145.18;100.00;47578.56;5047264;28;20043;-73
2021/12/19 03:26:36;;;;;;;26.90;5.87;;;;;;;-145.18;100.00;47582.47;5046041;28;20494;-73
2021/12/19 03:29:03;;;;;;;30.63;6.87;;;;;;;-145.18;100.00;47570.75;5046749;28;20037;-72
2021/12/19 03:31:29;;;;;;;37.90;8.33;;;;;;;-145.18;100.00;47570.75;5046328;28;20059;-72
2021/12/19 03:33:55;;;;;;;36.00;7.13;;;;;;;-145.18;100.00;47568.81;5036458;28;20267;-73
2021/12/19 03:36:20;;;;;;;27.63;6.80;;;;;;;-145.18;100.00;47551.22;5026648;28;20072;-72
2021/12/19 03:38:46;;;;;;;26.77;6.63;;;;;;;-145.18;100.00;47566.84;5026495;28;20075;-72
2021/12/19 03:43:39;;;;;;;33.40;7.07;;;;;;;-145.18;100.00;47555.13;5026577;28;20152;-73
2021/12/19 03:46:05;;;;;;;30.13;6.90;;;;;;;-145.18;100.00;47568.81;5026506;28;20068;-72
2021/12/19 03:48:30;;;;;;;29.63;7.33;;;;;;;-145.18;100.00;47564.91;5026954;28;20282;-73
2021/12/19 03:50:56;;;;;;;20.93;4.77;;;;;;;-145.18;100.00;47562.94;5027121;28;20061;-72
2021/12/19 03:53:22;;;;;;;27.57;5.77;;;;;;;-145.18;100.00;47564.91;5026305;28;20148;-72
2021/12/19 03:55:49;;;;;;;30.10;5.83;;;;;;;-145.18;100.00;47557.06;5026905;28;20042;-73
2021/12/19 03:58:15;;;;;;;32.90;7.47;;;;;;;-145.18;100.00;47559.03;5026787;28;20651;-72
2021/12/19 04:00:42;;;;;;;32.20;6.83;;;;;;;-145.18;100.00;47559.03;5026507;28;20293;-72
2021/12/19 04:03:10;;;;;;;32.97;7.33;;;;;;;-145.18;100.00;47535.59;5026545;28;20297;-73
2021/12/19 04:05:42;;;;;;;28.17;6.37;;;;;;;-145.18;100.00;47562.94;5026996;28;20287;-72
2021/12/19 04:08:07;;;;;;;35.80;6.87;;;;;;;-145.18;100.00;47553.16;5026566;28;20328;-72
2021/12/19 04:10:33;;;;;;;32.93;6.13;;;;;;;-145.18;100.00;47551.22;5026418;28;20317;-72
2021/12/19 04:12:58;;;;;;;34.50;6.90;;;;;;;-145.18;100.00;47572.72;5026531;28;20056;-73
2021/12/19 04:15:23;;;;;;;39.23;7.67;;;;;;;-145.18;100.00;47551.22;5026051;28;20038;-72
2021/12/19 04:17:49;;;;;;;41.13;7.93;;;;;;;-145.18;100.00;47578.56;5025539;28;20062;-72
2021/12/19 04:20:18;;;;;;;44.23;7.20;;;;;;;-145.18;100.00;47549.25;5026127;28;20045;-72
2021/12/19 04:22:44;;;;;;;34.23;6.53;;;;;;;-145.18;100.00;47562.94;5026735;28;20065;-72
2021/12/19 04:25:11;;;;;;;46.53;7.33;;;;;;;-145.18;100.00;47551.22;5026300;28;20346;-72
2021/12/19 04:27:37;;;;;;;31.97;6.67;;;;;;;-145.18;100.00;47562.94;5026328;28;20370;-72
2021/12/19 04:30:05;;;;;;;37.10;6.90;;;;;;;-145.18;100.00;47547.31;5026157;28;20278;-72
2021/12/19 04:32:36;;;;;;;23.00;5.43;;;;;;;-145.18;100.00;47564.91;5025905;28;20718;-72
2021/12/19 04:35:01;;;;;;;32.97;6.37;;;;;;;-145.18;100.00;47555.13;5026207;28;20282;-73
2021/12/19 04:40:20;;;;;;;30.70;5.70;;;;;;;-145.18;100.00;47557.06;5026180;28;20435;-72
2021/12/19 04:51:25;;;;;;;35.93;6.73;;;;;;;-145.18;100.00;47555.13;5026588;28;20270;-72
2021/12/19 05:02:16;;;;;;;49.40;7.97;;;;;;;-145.18;100.00;47578.56;5029497;28;20758;-72
2021/12/19 05:15:28;;;;;;;51.30;9.20;;;;;;;-145.18;100.00;47549.25;5028917;28;20397;-72
2021/12/19 05:17:59;;;;;;;26.47;5.27;;;;;;;-145.18;100.00;47551.22;5029062;28;20361;-72
2021/12/19 05:20:28;;;;;;;32.93;5.73;;;;;;;-145.18;100.00;47572.72;5029207;28;20258;-72
2021/12/19 05:22:59;;;;;;;31.03;5.60;;;;;;;-145.18;100.00;47557.06;5029135;28;20282;-72
2021/12/19 05:25:25;;;;;;;18.83;3.80;;;;;;;-145.18;100.00;47545.34;5029051;28;20283;-72
2021/12/19 05:27:53;;;;;;;21.27;4.43;;;;;;;-145.18;100.00;47543.41;5029100;28;20278;-72
2021/12/19 05:30:19;;;;;;;24.73;4.60;;;;;;;-145.18;100.00;47545.34;5042073;28;20044;-72
2021/12/19 05:32:47;;;;;;;27.43;5.80;;;;;;;-145.18;100.00;47555.13;5045448;28;20499;-72
2021/12/19 05:35:16;;;;;;;28.83;5.37;;;;;;;-145.18;100.00;47559.03;5045160;28;20275;-72
2021/12/19 05:45:55;;;;;;;34.97;6.43;;;;;;;-145.18;100.00;47549.25;5047912;28;20285;-72
2021/12/19 05:48:21;;;;;;;30.20;5.40;;;;;;;-145.18;100.00;47555.13;5047924;28;20278;-72
2021/12/19 05:50:46;;;;;;;36.33;6.10;;;;;;;-145.18;100.00;47551.22;5048342;28;20033;-72
2021/12/19 05:53:12;;;;;;;19.60;3.77;;;;;;;-145.18;100.00;47547.31;5048695;28;20498;-72
2021/12/19 05:55:38;;;;;;;19.17;3.93;;;;;;;-145.18;100.00;47539.50;5048107;28;20037;-72
2021/12/19 05:58:04;;;;;;;22.73;5.03;;;;;;;-145.18;100.00;47559.03;5048767;28;20464;-72
2021/12/19 06:00:29;;;;;;;21.83;4.30;;;;;;;-145.18;100.00;47570.75;5048206;28;20266;-72
2021/12/19 06:02:55;;;;;;;21.03;4.10;;;;;;;-145.18;100.00;47547.31;5047919;28;20037;-72
2021/12/19 06:05:21;;;;;;;21.17;3.73;;;;;;;-145.18;100.00;47543.41;5048118;28;20128;-72
2021/12/19 06:07:46;;;;;;;15.33;3.13;;;;;;;-145.18;100.00;47559.03;5048327;28;20474;-71
2021/12/19 06:10:12;;;;;;;17.13;3.63;;;;;;;-145.18;100.00;47541.44;5047633;28;20504;-72
2021/12/19 06:12:37;;;;;;;18.80;4.20;;;;;;;-145.18;100.00;47539.50;5030582;28;20037;-72
2021/12/19 06:15:09;;;;;;;25.87;4.73;;;;;;;-145.18;100.00;47541.44;5062448;28;20057;-72
2021/12/19 06:17:35;;;;;;;18.70;3.70;;;;;;;-145.18;100.00;47553.16;5061938;28;20485;-72
2021/12/19 06:20:01;;;;;;;22.83;4.20;;;;;;;-145.18;100.00;47547.31;5047683;28;20286;-72
2021/12/19 06:22:26;;;;;;;18.60;3.87;;;;;;;-145.18;100.00;47547.31;5047606;28;20274;-72
2021/12/19 06:24:52;;;;;;;19.57;3.30;;;;;;;-145.18;100.00;47527.78;5048044;28;20033;-72
2021/12/19 06:27:17;;;;;;;17.10;3.83;;;;;;;-145.18;100.00;47549.25;5047619;28;20131;-72
2021/12/19 06:29:42;;;;;;;18.47;3.57;;;;;;;-145.18;100.00;47559.03;5048441;28;20033;-72
2021/12/19 06:32:08;;;;;;;19.17;3.77;;;;;;;-145.18;100.00;47551.22;5029806;28;20049;-72
2021/12/19 06:34:34;;;;;;;14.63;2.50;;;;;;;-145.18;100.00;47539.50;5047099;28;20043;-72
2021/12/19 06:36:59;;;;;;;16.00;3.10;;;;;;;-145.18;100.00;47559.03;5047696;28;20087;-72
2021/12/19 06:39:25;;;;;;;17.20;3.50;;;;;;;-145.18;100.00;47555.13;5047229;28;20040;-72
2021/12/19 06:41:51;;;;;;;16.33;3.23;;;;;;;-145.18;100.00;47543.41;5047845;28;20120;-72
2021/12/19 06:44:17;;;;;;;12.33;3.27;;;;;;;-145.18;100.00;47543.41;5047775;28;20045;-72
2021/12/19 06:46:42;;;;;;;14.73;3.20;;;;;;;-145.18;100.00;47531.69;5047148;28;20451;-72
2021/12/19 06:49:08;;;;;;;19.40;3.17;;;;;;;-145.18;100.00;47547.31;5047093;28;20365;-72
2021/12/19 06:51:34;;;;;;;21.63;4.87;;;;;;;-145.18;100.00;47547.31;5014940;28;20124;-72
2021/12/19 06:54:00;;;;;;;18.37;4.50;;;;;;;-145.18;100.00;47539.50;5026902;28;20369;-72
2021/12/19 06:56:26;;;;;;;19.63;5.17;;;;;;;-145.18;100.00;47568.81;5029983;28;20136;-72
2021/12/19 06:58:51;;;;;;;14.80;4.50;;;;;;;-145.18;100.00;47551.22;5029897;28;20320;-71
2021/12/19 07:01:17;;;;;;;21.33;5.33;;;;;;;-145.18;100.00;47537.53;5047167;28;20033;-72
2021/12/19 07:03:42;;;;;;;9.70;3.57;;;;;;;-145.18;100.00;47557.06;5046715;28;20036;-71
2021/12/19 07:06:08;;;;;;;11.03;3.20;;;;;;;-145.18;100.00;47545.34;5046824;28;20059;-71
2021/12/19 07:08:34;;;;;;;10.33;3.10;;;;;;;-145.18;100.00;47533.63;5046708;28;20115;-71
2021/12/19 07:10:59;;;;;;;11.83;4.30;;;;;;;-145.18;100.00;47555.13;5046906;28;20041;-71
2021/12/19 07:13:24;;;;;;;15.70;3.97;;;;;;;-145.18;100.00;47553.16;5047281;28;20098;-71
2021/12/19 07:15:52;;;;;;;9.87;2.67;;;;;;;-145.18;100.00;47562.94;5046503;28;20044;-72
2021/12/19 07:18:18;;;;;;;7.60;1.87;;;;;;;-145.18;100.00;47551.22;5029061;28;20509;-71
2021/12/19 07:20:44;;;;;;;6.03;1.83;;;;;;;-145.18;100.00;47559.03;5046968;28;20282;-72
2021/12/19 07:23:14;;;;;;;6.20;1.63;;;;;;;-145.18;100.00;47535.59;5046661;28;20117;-72
2021/12/19 07:25:40;;;;;;;6.90;1.80;;;;;;;-145.18;100.00;47549.25;5045795;28;20313;-72
2021/12/19 07:28:06;;;;;;;8.83;2.10;;;;;;;-145.18;100.00;47543.41;5046582;28;20365;-72
2021/12/19 07:30:35;;;;;;;12.83;3.53;;;;;;;-145.18;100.00;47557.06;5046298;28;20349;-72
2021/12/19 07:33:01;;;;;;;10.03;2.80;;;;;;;-145.18;100.00;47551.22;5046602;28;20115;-72
2021/12/19 07:35:27;;;;;;;13.20;2.90;;;;;;;-145.18;100.00;47555.13;5047221;28;20270;-72
2021/12/19 07:37:55;;;;;;;12.10;3.00;;;;;;;-145.18;100.00;47545.34;5028764;28;20755;-72
2021/12/19 07:40:22;;;;;;;17.37;3.80;;;;;;;-145.18;100.00;47547.31;5045952;28;20457;-72
2021/12/19 07:42:48;;;;;;;12.03;3.13;;;;;;;-145.18;100.00;47561.00;5046588;28;20274;-71
2021/12/19 07:45:15;;;;;;;14.67;4.10;;;;;;;-145.18;100.00;47549.25;5046345;28;20309;-71
2021/12/19 07:47:41;;;;;;;13.60;3.90;;;;;;;-145.18;100.00;47555.13;5046280;28;20136;-72
2021/12/19 07:50:08;;;;;;;10.53;3.17;;;;;;;-145.18;100.00;47549.25;5045953;28;20702;-71
2021/12/19 07:52:33;;;;;;;5.33;1.83;;;;;;;-145.18;100.00;47564.91;5043809;28;20303;-71
2021/12/19 07:54:59;;;;;;;10.87;3.47;;;;;;;-145.18;100.00;47555.13;5045916;28;20370;-71
2021/12/19 07:57:24;;;;;;;11.03;3.23;;;;;;;-145.18;100.00;47543.41;5045937;28;20033;-71
2021/12/19 07:59:50;;;;;;;11.77;3.63;;;;;;;-145.18;100.00;47547.31;5046411;28;20029;-71
2021/12/19 08:02:16;;;;;;;18.67;4.40;;;;;;;-145.18;100.00;47555.13;5046248;28;20069;-71
2021/12/19 08:04:41;;;;;;;10.07;3.00;;;;;;;-145.18;100.00;47555.13;5046219;28;20099;-71
2021/12/19 08:07:08;;;;;;;6.67;2.67;;;;;;;-145.18;100.00;47551.22;5044543;28;20482;-71
2021/12/19 08:09:40;;;;;;;8.03;2.33;;;;;;;-145.18;100.00;47529.72;5039535;28;20045;-71
2021/12/19 08:12:06;;;;;;;9.20;2.13;;;;;;;-145.18;100.00;47533.63;5046273;28;20323;-71
2021/12/19 08:14:33;;;;;;;7.20;2.03;;;;;;;-145.18;100.00;47543.41;5045819;28;21326;-71
2021/12/19 08:16:59;;;;;;;8.53;1.93;;;;;;;-145.18;100.00;47555.13;5028496;28;20345;-71
2021/12/19 08:19:25;;;;;;;7.03;2.03;;;;;;;-145.18;100.00;47543.41;5045620;28;20278;-71
2021/12/19 08:21:52;;;;;;;12.33;3.37;;;;;;;-145.18;100.00;47537.53;5046511;28;20285;-71
2021/12/19 08:24:18;;;;;;;4.10;1.33;;;;;;;-145.18;100.00;47543.41;5045749;28;20053;-71
2021/12/19 08:26:45;;;;;;;6.10;2.00;;;;;;;-145.18;100.00;47549.25;5047022;28;20262;-71
2021/12/19 08:29:12;;;;;;;4.93;1.07;;;;;;;-145.18;100.00;47535.59;5049901;28;20048;-71
2021/12/19 08:31:38;;;;;;;6.43;1.50;;;;;;;-145.18;100.00;47535.59;5049456;28;20278;-71
2021/12/19 08:34:03;;;;;;;4.53;1.33;;;;;;;-145.18;100.00;47545.34;5049893;28;20300;-71
2021/12/19 08:36:29;;;;;;;4.33;1.30;;;;;;;-145.18;100.00;47531.69;5049659;28;20041;-71
2021/12/19 08:38:55;;;;;;;4.60;1.40;;;;;;;-145.18;100.00;47531.69;5049510;28;20120;-71
2021/12/19 08:41:20;;;;;;;7.17;1.50;;;;;;;-145.18;100.00;47564.91;5049701;28;20053;-71
2021/12/19 08:43:46;;;;;;;3.47;1.13;;;;;;;-145.18;100.00;47549.25;5050163;28;20044;-71
2021/12/19 08:46:12;;;;;;;4.70;1.20;;;;;;;-145.18;100.00;47543.41;5025216;28;20053;-71
2021/12/19 08:48:39;;;;;;;5.30;1.70;;;;;;;-145.18;100.00;47537.53;5009550;28;20048;-71
2021/12/19 08:51:05;;;;;;;6.10;1.90;;;;;;;-145.18;100.00;47561.00;5009454;28;20042;-71
2021/12/19 08:53:30;;;;;;;6.87;1.37;;;;;;;-145.18;100.00;47564.91;5009431;28;20899;-71
2021/12/19 08:55:56;;;;;;;5.00;1.40;;;;;;;-145.18;100.00;47543.41;5009532;28;20046;-71
2021/12/19 08:58:21;;;;;;;6.83;2.00;;;;;;;-145.18;100.00;47545.34;5010005;28;20052;-71
2021/12/19 09:00:46;;;;;;;6.63;1.80;;;;;;;-145.18;100.00;47547.31;5009355;28;20076;-71
2021/12/19 09:03:13;;;;;;;4.07;1.83;;;;;;;-145.18;100.00;47547.31;5009514;28;20065;-71
2021/12/19 09:05:38;;;;;;;7.07;2.13;;;;;;;-145.18;100.00;47543.41;4999781;28;20497;-71
2021/12/19 09:08:04;;;;;;;5.77;2.20;;;;;;;-145.18;100.00;47535.59;5005402;28;20290;-71
2021/12/19 09:10:29;;;;;;;5.00;1.93;;;;;;;-145.18;100.00;47543.41;5008854;28;20552;-71
2021/12/19 09:12:55;;;;;;;5.03;1.97;;;;;;;-145.18;100.00;47543.41;5009598;28;20065;-71
2021/12/19 09:15:20;;;;;;;7.77;3.30;;;;;;;-145.18;100.00;47525.81;5006109;28;20034;-71
2021/12/19 09:17:46;;;;;;;11.57;3.57;;;;;;;-145.18;100.00;47535.59;5009265;28;20061;-71
2021/12/19 09:20:12;;;;;;;11.00;3.63;;;;;;;-145.18;100.00;47545.34;5006741;28;20175;-70
2021/12/19 09:22:38;;;;;;;9.20;4.23;;;;;;;-145.18;100.00;47521.91;4997099;28;20046;-71
2021/12/19 09:25:05;;;;;;;10.47;4.63;;;;;;;-145.18;100.00;47508.22;4987700;28;20312;-71
2021/12/19 09:27:31;;;;;;;11.40;4.83;;;;;;;-145.18;100.00;47525.81;4993276;28;20153;-71
2021/12/19 09:29:56;;;;;;;13.73;5.27;;;;;;;-145.18;100.00;47508.22;5007306;28;20267;-71
2021/12/19 09:32:21;;;;;;;12.27;5.40;;;;;;;-145.18;100.00;47531.69;5009163;28;20065;-71
2021/12/19 09:34:47;;;;;;;16.13;5.47;;;;;;;-145.18;100.00;47537.53;5009372;28;20479;-71
2021/12/19 09:37:13;;;;;;;13.67;5.00;;;;;;;-145.18;100.00;47533.63;5009350;28;20057;-71
2021/12/19 09:39:39;;;;;;;12.23;5.13;;;;;;;-145.18;100.00;47529.72;5006239;28;20053;-71
2021/12/19 09:42:10;;;;;;;12.73;4.60;;;;;;;-145.18;100.00;47508.22;4990758;28;20056;-71
2021/12/19 09:44:38;;;;;;;11.70;5.50;;;;;;;-145.18;100.00;47514.09;4988358;28;20280;-71
2021/12/19 09:47:05;;;;;;;11.70;5.20;;;;;;;-145.18;100.00;47514.09;5021656;28;20271;-71
2021/12/19 09:49:33;;;;;;;13.87;4.87;;;;;;;-145.18;100.00;47514.09;5027892;28;20278;-71
2021/12/19 09:51:59;;;;;;;14.20;5.20;;;;;;;-145.18;100.00;47549.25;5027858;28;20273;-71
2021/12/19 09:54:24;;;;;;;12.97;5.13;;;;;;;-145.18;100.00;47529.72;5028388;28;20298;-71
2021/12/19 09:56:50;;;;;;;12.77;5.13;;;;;;;-145.18;100.00;47525.81;5028329;28;20433;-71
2021/12/19 09:59:18;;;;;;;18.83;7.40;;;;;;;-145.18;100.00;47535.59;5033526;28;20064;-71
2021/12/19 10:01:45;;;;;;;12.93;5.03;;;;;;;-145.18;100.00;47541.44;5047902;28;20049;-71
2021/12/19 10:04:33;;;;;;;10.07;4.23;;;;;;;-145.18;100.00;47537.53;5048330;28;20286;-71
2021/12/19 10:07:07;;;;;;;10.93;4.70;;;;;;;-145.18;100.00;47521.91;5048378;28;20278;-71
2021/12/19 10:09:33;;;;;;;10.20;3.40;;;;;;;-145.18;100.00;47510.19;5047820;28;20706;-71
2021/12/19 10:12:23;;;;;;;9.30;3.33;;;;;;;-145.18;100.00;47535.59;5048113;28;20786;-71
2021/12/19 10:14:48;;;;;;;7.90;3.87;;;;;;;-145.18;100.00;47516.06;5048215;28;20281;-71
2021/12/19 10:17:18;;;;;;;8.10;3.83;;;;;;;-145.18;100.00;47535.59;5047596;28;20278;-71
2021/12/19 10:19:47;;;;;;;10.97;3.60;;;;;;;-145.18;100.00;47535.59;5048110;28;20029;-71
2021/12/19 10:22:43;;;;;;;9.30;4.37;;;;;;;-145.18;100.00;47506.28;5048365;28;20289;-71
2021/12/19 10:25:21;;;;;;;9.27;3.80;;;;;;;-145.18;100.00;47496.50;5047984;28;20277;-71
2021/12/19 10:27:52;;;;;;;3.30;2.20;;;;;;;-145.18;100.00;47533.63;5048274;28;20053;-71
2021/12/19 10:30:21;;;;;;;7.00;2.97;;;;;;;-145.18;100.00;47523.88;5047804;28;20251;-71
2021/12/19 10:33:08;;;;;;;5.60;2.20;;;;;;;-145.18;100.00;47549.25;5047686;28;20262;-70
2021/12/19 10:35:41;;;;;;;5.90;2.90;;;;;;;-145.18;100.00;47508.22;5047445;28;20254;-71
2021/12/19 10:38:14;;;;;;;6.17;3.40;;;;;;;-145.18;100.00;47518.00;5046283;28;20335;-71
2021/12/19 10:40:45;;;;;;;7.57;3.33;;;;;;;-145.18;100.00;47527.78;5047421;28;20270;-71
2021/12/19 10:43:16;;;;;;;8.70;3.80;;;;;;;-145.18;100.00;47523.88;5047460;28;20782;-71
2021/12/19 10:45:49;;;;;;;9.77;3.23;;;;;;;-145.18;100.00;47516.06;5047066;28;20286;-71
2021/12/19 10:48:14;;;;;;;4.67;3.00;;;;;;;-145.18;100.00;47521.91;5047202;28;20258;-71
2021/12/19 10:51:16;;;;;;;4.93;2.77;;;;;;;-145.18;100.00;47512.16;5046257;28;20896;-71
2021/12/19 10:53:43;;;;;;;5.83;2.80;;;;;;;-145.18;100.00;47518.00;5036339;28;20047;-71
2021/12/19 10:56:14;;;;;;;10.73;5.73;;;;;;;-145.18;100.00;47518.00;5046954;28;20335;-71
2021/12/19 10:58:54;;;;;;;9.03;5.27;;;;;;;-145.18;100.00;47508.22;5046884;28;20262;-71
2021/12/19 11:01:29;;;;;;;12.37;6.87;;;;;;;-145.18;100.00;47500.41;5046833;28;20278;-71
2021/12/19 11:04:06;;;;;;;14.63;7.53;;;;;;;-145.18;100.00;47500.41;5046639;28;20274;-70
2021/12/19 11:06:42;;;;;;;12.80;8.50;;;;;;;-145.18;100.00;47533.63;5047276;28;20040;-71
2021/12/19 11:09:10;;;;;;;12.90;8.17;;;;;;;-145.18;100.00;47516.06;5046862;28;20266;-70
2021/12/19 11:12:13;;;;;;;15.13;9.57;;;;;;;-145.18;100.00;47525.81;5046416;28;20290;-71
2021/12/19 11:14:44;;;;;;;15.77;8.27;;;;;;;-145.18;100.00;47521.91;5046281;28;20617;-70
2021/12/19 11:17:15;;;;;;;14.30;8.70;;;;;;;-145.18;100.00;47500.41;5046675;28;20802;-71
2021/12/19 11:19:42;;;;;;;17.07;9.83;;;;;;;-145.18;100.00;47498.47;5046356;28;20254;-71
2021/12/19 11:22:09;;;;;;;16.40;9.77;;;;;;;-145.18;100.00;47508.22;5046696;28;20322;-71
2021/12/19 11:24:34;;;;;;;18.10;9.20;;;;;;;-145.18;100.00;47504.31;5046570;28;20269;-71
2021/12/19 11:27:04;;;;;;;14.80;9.27;;;;;;;-145.18;100.00;47496.50;5046276;28;20647;-71
2021/12/19 11:29:30;;;;;;;18.57;8.63;;;;;;;-145.18;100.00;47492.59;5046519;28;20398;-71
2021/12/19 11:31:59;;;;;;;17.00;8.13;;;;;;;-145.18;100.00;47518.00;5046003;28;20274;-71
2021/12/19 11:34:51;;;;;;;17.80;8.40;;;;;;;-145.18;100.00;47514.09;5045933;28;20258;-70
2021/12/19 11:37:22;;;;;;;17.87;6.80;;;;;;;-145.18;100.00;47521.91;5044596;28;20270;-70
2021/12/19 11:39:54;;;;;;;13.13;7.57;;;;;;;-145.18;100.00;47506.28;5036020;28;20266;-70
2021/12/19 11:42:29;;;;;;;19.33;7.77;;;;;;;-145.18;100.00;47508.22;5046401;28;20785;-70
2021/12/19 11:47:35;;;;;;;14.37;7.80;;;;;;;-145.18;100.00;47523.88;5045957;28;20048;-69
2021/12/19 11:50:31;;;;;;;18.13;9.23;;;;;;;-145.18;100.00;47519.97;5046283;28;20270;-70
2021/12/19 11:53:18;;;;;;;13.93;5.03;;;;;;;-145.18;100.00;47516.06;5030257;28;20386;-70
2021/12/19 11:55:48;;;;;;;15.73;7.80;;;;;;;-145.18;100.00;47523.88;5044190;28;20527;-70
2021/12/19 11:58:23;;;;;;;13.17;7.47;;;;;;;-145.18;100.00;47523.88;5044097;28;20268;-70
2021/12/19 12:01:00;;;;;;;16.03;7.70;;;;;;;-145.18;100.00;47529.72;5044897;28;20769;-70
2021/12/19 12:03:47;;;;;;;13.17;7.13;;;;;;;-145.18;100.00;47512.16;5048382;28;20293;-70
2021/12/19 12:06:20;;;;;;;18.80;8.83;;;;;;;-145.18;100.00;47494.56;5048432;28;20995;-70
2021/12/19 12:09:13;;;;;;;22.83;9.57;;;;;;;-145.18;100.00;47496.50;5048314;28;20282;-70
2021/12/19 12:12:00;;;;;;;15.23;9.23;;;;;;;-145.18;100.00;47510.19;5047836;28;20270;-70
2021/12/19 12:14:29;;;;;;;13.67;7.97;;;;;;;-145.18;100.00;47512.16;5050022;28;20292;-70
2021/12/19 12:16:58;;;;;;;25.77;10.47;;;;;;;-145.18;100.00;47486.75;5050327;28;20262;-71